Airport METAR Information

LTBA 250450Z 36021KT 6000 FEW014 SCT025 BKN080 17/13 Q1021 NOSIG

VATSIM Livefeed

Card image cap

ATC Bookings

Position Full Name Date Time (UTC)
LTAC_APP Cemre Can Cayirci 29/09/2018 1700 ‐ 2000
LTAC_TWR Joel Dupont 29/09/2018 1700 ‐ 2000
LTBA_APP Malte Zwillus 29/09/2018 1700 ‐ 2000
LTBA_GND Burak Tas 29/09/2018 1700 ‐ 2000

Card image cap

Active ATC

No controllers online

Blog

Read our latest news and get to know us better.